Time;durP1;ratioP1;P1;durP2;ratioP2;P2;SDS_P1;SDS_P2;PMS_P1;PMS_P2;Temp;Humidity;BMP_temperature;BMP_pressure;BME280_temperature;BME280_humidity;BME280_pressure;Samples;Min_cycle;Max_cycle;Signal;HPM_P1;HPM_P2
2022/03/08 00:02:07;;;;;;;3.17;1.63;;;23.20;30.50;;;;;;5005783;28;20115;-44
2022/03/08 00:04:34;;;;;;;4.10;1.85;;;23.30;30.50;;;;;;5005830;28;20053;-44
2022/03/08 00:07:00;;;;;;;3.88;1.70;;;23.30;30.60;;;;;;5005902;28;20338;-44
2022/03/08 00:09:26;;;;;;;3.60;1.88;;;23.30;30.60;;;;;;5005715;28;20021;-44
2022/03/08 00:11:52;;;;;;;4.30;1.52;;;23.20;30.50;;;;;;5005411;28;20033;-44
2022/03/08 00:14:18;;;;;;;2.95;1.50;;;23.20;30.50;;;;;;5005288;28;20030;-44
2022/03/08 00:16:44;;;;;;;4.07;2.05;;;23.20;30.50;;;;;;5005639;28;20045;-44
2022/03/08 00:19:10;;;;;;;3.00;1.63;;;23.20;30.50;;;;;;5005408;28;20042;-44
2022/03/08 00:21:36;;;;;;;4.35;1.92;;;23.20;30.50;;;;;;5005233;28;20492;-44
2022/03/08 00:24:02;;;;;;;2.97;1.48;;;23.20;30.50;;;;;;5004782;28;20080;-43
2022/03/08 00:26:27;;;;;;;2.80;1.40;;;23.20;30.50;;;;;;5005029;28;20038;-43
2022/03/08 00:28:53;;;;;;;3.22;1.52;;;23.20;30.50;;;;;;5005780;28;20026;-43
2022/03/08 00:31:19;;;;;;;3.13;1.40;;;23.20;30.50;;;;;;5005229;28;20064;-43
2022/03/08 00:33:45;;;;;;;3.08;1.48;;;23.10;30.50;;;;;;5019538;28;20056;-44
2022/03/08 00:36:10;;;;;;;2.72;1.40;;;23.10;30.50;;;;;;5005380;28;20034;-44
2022/03/08 00:38:36;;;;;;;3.13;1.58;;;23.10;30.50;;;;;;5005127;28;20436;-44
2022/03/08 00:41:02;;;;;;;3.45;1.80;;;23.10;30.40;;;;;;5005250;28;20041;-44
2022/03/08 00:43:28;;;;;;;3.08;1.63;;;23.10;30.40;;;;;;5005010;28;20029;-44
2022/03/08 00:45:54;;;;;;;2.95;1.48;;;23.10;30.40;;;;;;5004401;28;20261;-44
2022/03/08 00:48:20;;;;;;;2.70;1.42;;;23.10;30.40;;;;;;5005012;28;20481;-44
2022/03/08 00:50:46;;;;;;;3.00;1.60;;;23.10;30.40;;;;;;5004986;28;20041;-44
2022/03/08 00:53:12;;;;;;;2.78;1.45;;;23.00;30.40;;;;;;5004422;28;20022;-43
2022/03/08 00:55:38;;;;;;;3.65;1.70;;;23.00;30.40;;;;;;5004133;28;20057;-44
2022/03/08 00:58:05;;;;;;;3.20;1.70;;;23.00;30.40;;;;;;5004305;28;20096;-43
2022/03/08 01:00:33;;;;;;;2.75;1.40;;;23.00;30.40;;;;;;5003467;28;20117;-44
2022/03/08 01:02:59;;;;;;;4.70;1.83;;;23.00;30.40;;;;;;5004995;28;20235;-44
2022/03/08 01:05:25;;;;;;;2.97;1.52;;;23.00;30.40;;;;;;5004313;28;20432;-44
2022/03/08 01:07:52;;;;;;;2.85;1.40;;;23.00;30.40;;;;;;5005078;28;20041;-44
2022/03/08 01:10:20;;;;;;;3.35;1.42;;;23.00;30.50;;;;;;5004772;28;20022;-44
2022/03/08 01:12:46;;;;;;;2.78;1.55;;;23.00;30.40;;;;;;5005344;28;20088;-43
2022/03/08 01:15:13;;;;;;;3.35;1.70;;;23.00;30.40;;;;;;5005115;28;20030;-44
2022/03/08 01:17:40;;;;;;;3.05;1.45;;;23.00;30.40;;;;;;5005203;28;20058;-43
2022/03/08 01:20:07;;;;;;;2.97;1.60;;;22.90;30.40;;;;;;5004750;28;20018;-44
2022/03/08 01:22:33;;;;;;;2.55;1.42;;;22.90;30.50;;;;;;5004522;28;20026;-43
2022/03/08 01:24:59;;;;;;;3.92;1.50;;;22.90;30.50;;;;;;5004694;28;20037;-43
2022/03/08 01:27:25;;;;;;;3.35;1.35;;;22.90;30.50;;;;;;5003179;28;20080;-44
2022/03/08 01:29:50;;;;;;;2.70;1.40;;;22.90;30.50;;;;;;5004867;28;20763;-44
2022/03/08 01:32:16;;;;;;;2.58;1.33;;;22.90;30.50;;;;;;5002657;28;20022;-43
2022/03/08 01:34:42;;;;;;;3.67;1.70;;;22.90;30.50;;;;;;5004245;28;20038;-44
2022/03/08 01:37:09;;;;;;;2.28;1.23;;;22.90;30.50;;;;;;5020027;28;20057;-43
2022/03/08 01:39:35;;;;;;;3.38;1.70;;;22.90;30.50;;;;;;5004971;28;20113;-44
2022/03/08 01:42:14;;;;;;;3.45;1.50;;;22.90;30.50;;;;;;5004802;28;20038;-43
2022/03/08 01:44:41;;;;;;;2.70;1.30;;;22.80;30.40;;;;;;5003881;28;20030;-43
2022/03/08 01:47:07;;;;;;;2.72;1.70;;;22.80;30.40;;;;;;5004453;28;20026;-44
2022/03/08 01:49:33;;;;;;;2.75;1.50;;;22.80;30.50;;;;;;5004524;28;20026;-44
2022/03/08 01:51:59;;;;;;;2.50;1.23;;;22.80;30.40;;;;;;5004649;28;20034;-44
2022/03/08 01:54:25;;;;;;;3.05;1.35;;;22.80;30.50;;;;;;5004212;28;20037;-43
2022/03/08 01:56:51;;;;;;;2.67;1.40;;;22.80;30.50;;;;;;5004514;28;20623;-44
2022/03/08 01:59:16;;;;;;;2.85;1.40;;;22.80;30.50;;;;;;5003872;28;20729;-44
2022/03/08 02:01:42;;;;;;;2.88;1.60;;;22.80;30.50;;;;;;5004303;28;20065;-44
2022/03/08 02:04:08;;;;;;;3.28;1.70;;;22.80;30.50;;;;;;5004002;28;20037;-43
2022/03/08 02:06:34;;;;;;;2.60;1.38;;;22.80;30.50;;;;;;5005686;28;20095;-44
2022/03/08 02:09:00;;;;;;;2.97;1.17;;;22.80;30.50;;;;;;5007511;28;20052;-43
2022/03/08 02:11:26;;;;;;;2.10;1.10;;;22.80;30.60;;;;;;5007742;28;20038;-43
2022/03/08 02:13:52;;;;;;;2.30;1.17;;;22.70;30.60;;;;;;5007527;28;20573;-44
2022/03/08 02:16:18;;;;;;;2.38;1.23;;;22.80;30.60;;;;;;5007742;28;20033;-43
2022/03/08 02:18:44;;;;;;;2.63;1.35;;;22.70;30.50;;;;;;5007454;28;20033;-44
2022/03/08 02:21:09;;;;;;;2.53;1.30;;;22.70;30.60;;;;;;5007354;28;20034;-43
2022/03/08 02:23:36;;;;;;;3.00;1.58;;;22.70;30.60;;;;;;5006157;28;20126;-44
2022/03/08 02:26:02;;;;;;;2.33;1.25;;;22.70;30.60;;;;;;5007274;28;20653;-44
2022/03/08 02:28:29;;;;;;;2.72;1.52;;;22.70;30.60;;;;;;5007184;28;20075;-43
2022/03/08 02:30:55;;;;;;;2.90;1.55;;;22.70;30.60;;;;;;5007600;28;20021;-44
2022/03/08 02:33:21;;;;;;;3.95;1.63;;;22.70;30.60;;;;;;5007157;28;20591;-43
2022/03/08 02:35:47;;;;;;;2.92;1.40;;;22.70;30.60;;;;;;5007521;28;20054;-44
2022/03/08 02:38:13;;;;;;;2.63;1.40;;;22.60;30.50;;;;;;5007287;28;20045;-43
2022/03/08 02:40:41;;;;;;;3.40;1.63;;;22.60;30.50;;;;;;5006743;28;20268;-44
2022/03/08 02:43:09;;;;;;;2.63;1.38;;;22.60;30.50;;;;;;5006534;28;20069;-44
2022/03/08 02:45:36;;;;;;;3.08;1.75;;;22.60;30.50;;;;;;5006655;28;20030;-44
2022/03/08 02:48:03;;;;;;;2.30;1.25;;;22.60;30.50;;;;;;5006958;28;20363;-44
2022/03/08 02:50:28;;;;;;;2.65;1.40;;;22.60;30.60;;;;;;5007124;28;20026;-43
2022/03/08 02:52:57;;;;;;;2.63;1.40;;;22.60;30.60;;;;;;5007166;28;20030;-43
2022/03/08 02:55:25;;;;;;;2.30;1.40;;;22.60;30.60;;;;;;4992472;28;20503;-44
2022/03/08 02:57:52;;;;;;;2.72;1.40;;;22.60;30.60;;;;;;5007334;28;20034;-44
2022/03/08 03:00:19;;;;;;;2.90;1.50;;;22.60;30.50;;;;;;5000933;28;20402;-44
2022/03/08 03:02:46;;;;;;;3.35;1.60;;;22.50;30.50;;;;;;4987660;28;20034;-44
2022/03/08 03:05:12;;;;;;;3.00;1.55;;;22.50;30.50;;;;;;4987134;28;20039;-43
2022/03/08 03:07:38;;;;;;;2.47;1.40;;;22.60;30.50;;;;;;4986940;28;20028;-43
2022/03/08 03:10:07;;;;;;;3.20;1.75;;;22.60;30.50;;;;;;5004276;28;20045;-44
2022/03/08 03:12:33;;;;;;;3.05;1.73;;;22.50;30.50;;;;;;5007041;28;20022;-44
2022/03/08 03:14:59;;;;;;;2.72;1.38;;;22.50;30.50;;;;;;5006184;28;20038;-44
2022/03/08 03:17:24;;;;;;;2.97;1.60;;;22.50;30.50;;;;;;5005696;28;20097;-44
2022/03/08 03:19:50;;;;;;;2.53;1.38;;;22.50;30.50;;;;;;5006160;28;20029;-43
2022/03/08 03:22:16;;;;;;;2.67;1.60;;;22.50;30.50;;;;;;5004734;28;20057;-44
2022/03/08 03:24:42;;;;;;;2.70;1.50;;;22.50;30.50;;;;;;5005650;28;20072;-43
2022/03/08 03:27:07;;;;;;;3.00;1.52;;;22.40;30.40;;;;;;5005812;28;20088;-44
2022/03/08 03:29:33;;;;;;;2.63;1.45;;;22.50;30.50;;;;;;5006860;28;20096;-44
2022/03/08 03:31:59;;;;;;;2.80;1.40;;;22.50;30.50;;;;;;5006305;28;20025;-43
2022/03/08 03:34:25;;;;;;;3.15;1.67;;;22.40;30.40;;;;;;5005910;28;20026;-44
2022/03/08 03:36:51;;;;;;;3.33;1.73;;;22.40;30.40;;;;;;5006498;28;20659;-44
2022/03/08 03:39:18;;;;;;;2.70;1.50;;;22.40;30.40;;;;;;5005326;28;20626;-44
2022/03/08 03:41:43;;;;;;;3.00;1.70;;;22.40;30.50;;;;;;5006048;28;20034;-44
2022/03/08 03:44:09;;;;;;;2.67;1.38;;;22.40;30.50;;;;;;5006035;28;20456;-44
2022/03/08 03:46:35;;;;;;;2.58;1.40;;;22.40;30.40;;;;;;5003879;28;20056;-43
2022/03/08 03:49:01;;;;;;;3.30;1.70;;;22.40;30.40;;;;;;5006283;28;20730;-43
2022/03/08 03:51:27;;;;;;;2.97;1.40;;;22.40;30.40;;;;;;5005905;28;20028;-44
2022/03/08 03:53:52;;;;;;;2.95;1.77;;;22.40;30.40;;;;;;5004799;28;20030;-44
2022/03/08 03:56:18;;;;;;;2.97;1.60;;;22.40;30.40;;;;;;5004272;28;20464;-43
2022/03/08 03:58:44;;;;;;;2.67;1.42;;;22.40;30.40;;;;;;5005731;28;20062;-44
2022/03/08 04:01:09;;;;;;;2.88;1.63;;;22.40;30.60;;;;;;5020821;28;20596;-43
2022/03/08 04:03:35;;;;;;;2.78;1.38;;;22.40;30.30;;;;;;5005929;28;20675;-44
2022/03/08 04:06:01;;;;;;;3.30;1.63;;;22.40;30.30;;;;;;5005516;28;20036;-44
2022/03/08 04:08:26;;;;;;;3.10;1.42;;;22.40;30.30;;;;;;5005808;28;20040;-43
2022/03/08 04:10:52;;;;;;;3.25;1.83;;;22.40;30.30;;;;;;5005706;28;20093;-43
2022/03/08 04:13:18;;;;;;;2.92;1.58;;;22.40;30.30;;;;;;5005327;28;20104;-44
2022/03/08 04:15:45;;;;;;;2.40;1.48;;;22.40;30.30;;;;;;5005323;28;20034;-44
2022/03/08 04:18:12;;;;;;;2.92;1.70;;;22.30;30.30;;;;;;5004817;28;20062;-44
2022/03/08 04:20:38;;;;;;;3.13;1.73;;;22.30;30.30;;;;;;5005050;28;20034;-44
2022/03/08 04:23:04;;;;;;;3.08;1.75;;;22.30;30.30;;;;;;5004599;28;20037;-43
2022/03/08 04:25:30;;;;;;;2.85;1.63;;;22.30;30.30;;;;;;5004672;28;20130;-44
2022/03/08 04:27:56;;;;;;;2.50;1.50;;;22.30;30.40;;;;;;5004771;28;20026;-44
2022/03/08 04:30:21;;;;;;;2.90;1.63;;;22.30;30.30;;;;;;5005095;28;20037;-44
2022/03/08 04:32:50;;;;;;;2.97;1.83;;;22.30;30.30;;;;;;5005068;28;20026;-44
2022/03/08 04:35:17;;;;;;;3.25;1.98;;;22.30;30.30;;;;;;5019964;28;20022;-44
2022/03/08 04:37:44;;;;;;;2.88;1.80;;;22.30;30.30;;;;;;5005316;28;20563;-44
2022/03/08 04:40:11;;;;;;;3.08;1.60;;;22.30;30.30;;;;;;5003987;28;20053;-44
2022/03/08 04:42:38;;;;;;;3.50;1.70;;;22.30;30.30;;;;;;5005314;28;20030;-44
2022/03/08 04:45:05;;;;;;;3.70;1.67;;;22.30;30.20;;;;;;5004828;28;20729;-44
2022/03/08 04:47:34;;;;;;;3.75;1.92;;;22.30;30.20;;;;;;5003909;28;20088;-44
2022/03/08 04:50:00;;;;;;;2.20;1.27;;;22.30;30.20;;;;;;5005598;28;20022;-43
2022/03/08 04:52:25;;;;;;;3.92;1.65;;;22.30;30.20;;;;;;5005223;28;20037;-43
2022/03/08 04:54:51;;;;;;;2.85;1.75;;;22.30;30.20;;;;;;5004736;28;20033;-43
2022/03/08 04:57:17;;;;;;;3.28;1.80;;;22.30;30.20;;;;;;5005267;28;20049;-43
2022/03/08 04:59:42;;;;;;;3.30;1.88;;;22.30;30.20;;;;;;5005166;28;20022;-43
2022/03/08 05:02:08;;;;;;;3.38;2.00;;;22.30;30.10;;;;;;4985595;28;20035;-43
2022/03/08 05:04:34;;;;;;;3.30;1.88;;;22.20;30.10;;;;;;4985571;28;20037;-44
2022/03/08 05:07:00;;;;;;;4.63;1.80;;;22.20;30.10;;;;;;4985082;28;20069;-44
2022/03/08 05:09:25;;;;;;;2.53;1.58;;;22.20;30.80;;;;;;4994590;28;20034;-44
2022/03/08 05:11:51;;;;;;;3.45;2.03;;;22.20;30.10;;;;;;5004882;28;20030;-44
2022/03/08 05:14:17;;;;;;;3.55;2.08;;;22.20;30.20;;;;;;5004788;28;20030;-44
2022/03/08 05:16:43;;;;;;;3.35;1.83;;;22.20;30.30;;;;;;5004805;28;20049;-44
2022/03/08 05:19:08;;;;;;;2.78;1.75;;;22.20;30.20;;;;;;5004963;28;20033;-44
2022/03/08 05:21:34;;;;;;;3.30;1.75;;;22.20;30.30;;;;;;5004257;28;20045;-44
2022/03/08 05:24:00;;;;;;;3.35;2.05;;;22.20;30.30;;;;;;5004393;28;20485;-44
2022/03/08 05:26:26;;;;;;;3.38;1.90;;;22.20;30.30;;;;;;5005232;28;20030;-44
2022/03/08 05:28:52;;;;;;;2.92;1.92;;;22.20;30.30;;;;;;5005127;28;20355;-44
2022/03/08 05:31:17;;;;;;;3.17;1.98;;;22.20;30.40;;;;;;5004830;28;20026;-44
2022/03/08 05:33:43;;;;;;;3.30;2.10;;;22.30;30.50;;;;;;5003997;28;20084;-43
2022/03/08 05:36:09;;;;;;;2.90;1.77;;;22.30;30.50;;;;;;5004058;28;20415;-44
2022/03/08 05:38:34;;;;;;;3.25;2.00;;;22.30;30.50;;;;;;5004203;28;20100;-43
2022/03/08 05:41:01;;;;;;;3.15;1.98;;;22.40;30.60;;;;;;5006252;28;20225;-44
2022/03/08 05:43:28;;;;;;;3.05;1.92;;;22.40;30.60;;;;;;5008019;28;20034;-44
2022/03/08 05:45:53;;;;;;;3.97;1.83;;;22.50;30.60;;;;;;5007905;28;20168;-44
2022/03/08 05:48:19;;;;;;;3.60;1.85;;;22.60;30.60;;;;;;5023729;28;20124;-44
2022/03/08 05:50:45;;;;;;;3.47;1.80;;;22.60;30.50;;;;;;5008149;28;20022;-44
2022/03/08 05:53:10;;;;;;;2.97;1.77;;;22.70;30.40;;;;;;5007868;28;20113;-44
2022/03/08 05:55:36;;;;;;;3.20;1.80;;;22.80;30.40;;;;;;5006500;28;20497;-43
2022/03/08 05:58:02;;;;;;;3.60;2.17;;;22.80;30.20;;;;;;5006997;28;20178;-43
2022/03/08 06:00:28;;;;;;;3.67;2.13;;;22.90;30.20;;;;;;5007026;28;20113;-44
2022/03/08 06:02:54;;;;;;;3.65;1.98;;;23.00;30.10;;;;;;5021928;28;20041;-44
2022/03/08 06:05:22;;;;;;;3.90;2.40;;;23.00;30.00;;;;;;5006385;28;20034;-44
2022/03/08 06:07:48;;;;;;;3.72;1.83;;;23.10;29.90;;;;;;5006416;28;20022;-44
2022/03/08 06:10:14;;;;;;;2.90;1.88;;;23.20;29.90;;;;;;5006597;28;20441;-44
2022/03/08 06:12:41;;;;;;;3.33;1.80;;;23.20;29.90;;;;;;5006145;28;20063;-44
2022/03/08 06:15:08;;;;;;;3.88;1.75;;;23.30;30.00;;;;;;5004837;28;20106;-44
2022/03/08 06:17:34;;;;;;;3.55;1.90;;;23.40;29.90;;;;;;5004812;28;20117;-44
2022/03/08 06:20:00;;;;;;;3.28;1.90;;;23.50;30.10;;;;;;5005812;28;20439;-44
2022/03/08 06:22:26;;;;;;;3.10;2.00;;;23.50;30.00;;;;;;5005040;28;20030;-44
2022/03/08 06:24:51;;;;;;;3.67;2.25;;;23.50;29.90;;;;;;5005249;28;20482;-44
2022/03/08 06:27:17;;;;;;;3.20;1.98;;;23.60;29.60;;;;;;5004899;28;20245;-44
2022/03/08 06:29:43;;;;;;;3.83;2.22;;;23.70;29.90;;;;;;5005562;28;20018;-45
2022/03/08 06:32:09;;;;;;;4.15;2.40;;;23.70;29.80;;;;;;5004126;28;20018;-44
2022/03/08 06:34:35;;;;;;;3.50;2.10;;;23.80;29.70;;;;;;5005348;28;20076;-43
2022/03/08 06:37:01;;;;;;;3.03;1.98;;;23.90;29.70;;;;;;5005970;28;20795;-44
2022/03/08 06:39:27;;;;;;;4.25;2.40;;;23.90;29.50;;;;;;5005845;28;20056;-44
2022/03/08 06:41:52;;;;;;;3.90;2.47;;;24.00;29.40;;;;;;5006621;28;20875;-44
2022/03/08 06:44:18;;;;;;;4.55;2.55;;;24.10;29.30;;;;;;5001960;28;20048;-44
2022/03/08 06:46:46;;;;;;;3.95;2.65;;;24.10;29.50;;;;;;5004213;28;20029;-43
2022/03/08 06:49:12;;;;;;;4.55;2.50;;;24.20;29.50;;;;;;5006162;28;20025;-44
2022/03/08 06:51:38;;;;;;;3.47;2.22;;;24.20;29.40;;;;;;5005741;28;20084;-44
2022/03/08 06:54:08;;;;;;;3.80;2.40;;;24.20;29.30;;;;;;5005288;28;20034;-44
2022/03/08 06:56:34;;;;;;;3.85;2.40;;;24.30;29.10;;;;;;5005498;28;20038;-44
2022/03/08 06:59:04;;;;;;;3.78;2.70;;;24.30;29.10;;;;;;5005609;28;20459;-44
2022/03/08 07:01:29;;;;;;;3.88;2.50;;;24.40;29.00;;;;;;5005443;28;20061;-44
2022/03/08 07:03:55;;;;;;;3.40;2.13;;;24.40;28.90;;;;;;5004808;28;20635;-44
2022/03/08 07:06:21;;;;;;;3.70;2.30;;;24.50;28.90;;;;;;5005082;28;20096;-43
2022/03/08 07:08:47;;;;;;;4.07;2.53;;;24.50;28.80;;;;;;5004815;28;20116;-44
2022/03/08 07:11:13;;;;;;;3.25;2.22;;;24.60;28.80;;;;;;5006981;28;20579;-43
2022/03/08 07:13:39;;;;;;;4.10;2.50;;;24.60;28.70;;;;;;5006692;28;20096;-44
2022/03/08 07:16:06;;;;;;;3.05;2.20;;;24.60;28.40;;;;;;5006865;28;20030;-44
2022/03/08 07:18:31;;;;;;;3.95;2.42;;;24.70;28.50;;;;;;5003581;28;20043;-43
2022/03/08 07:20:57;;;;;;;3.80;2.50;;;24.70;28.40;;;;;;5005365;28;20673;-43
2022/03/08 07:23:23;;;;;;;4.88;2.40;;;24.70;28.20;;;;;;5004973;28;20109;-44
2022/03/08 07:25:49;;;;;;;6.40;2.28;;;24.80;28.20;;;;;;5020012;28;20588;-44
2022/03/08 07:28:15;;;;;;;3.95;2.28;;;24.80;28.60;;;;;;5005237;28;20022;-43
2022/03/08 07:30:40;;;;;;;4.60;2.42;;;24.80;29.10;;;;;;5004833;28;20053;-43
2022/03/08 07:33:06;;;;;;;5.97;2.63;;;24.80;29.10;;;;;;5004754;28;20265;-43
2022/03/08 07:35:32;;;;;;;5.03;2.70;;;24.80;28.90;;;;;;5002892;28;20041;-44
2022/03/08 07:37:57;;;;;;;3.90;2.40;;;24.90;29.10;;;;;;5005491;28;20022;-42
2022/03/08 07:40:23;;;;;;;4.40;2.80;;;24.90;29.00;;;;;;5005498;28;20025;-44
2022/03/08 07:42:49;;;;;;;6.10;2.63;;;25.00;28.90;;;;;;5004890;28;20022;-44
2022/03/08 07:45:15;;;;;;;3.67;2.10;;;25.00;28.80;;;;;;5004458;28;20038;-44
2022/03/08 07:47:40;;;;;;;5.00;3.03;;;25.00;28.80;;;;;;5004587;28;20111;-44
2022/03/08 07:50:07;;;;;;;5.65;2.30;;;25.00;28.70;;;;;;5004727;28;20042;-44
2022/03/08 07:52:33;;;;;;;4.47;2.55;;;25.00;28.60;;;;;;5004572;28;20025;-44
2022/03/08 07:54:58;;;;;;;3.90;2.38;;;25.00;28.50;;;;;;5003021;28;20034;-43
2022/03/08 07:57:24;;;;;;;4.30;2.25;;;25.00;28.60;;;;;;5004096;28;20486;-43
2022/03/08 07:59:50;;;;;;;4.78;2.42;;;25.00;28.60;;;;;;5002457;28;20049;-43
2022/03/08 08:02:16;;;;;;;4.45;2.38;;;25.00;28.60;;;;;;5003922;28;20034;-44
2022/03/08 08:04:42;;;;;;;4.43;2.58;;;25.00;28.70;;;;;;5003754;28;20702;-43
2022/03/08 08:07:07;;;;;;;3.58;2.13;;;25.00;28.80;;;;;;5005043;28;20500;-44
2022/03/08 08:09:33;;;;;;;4.78;2.50;;;25.00;28.80;;;;;;5005027;28;20056;-44
2022/03/08 08:11:59;;;;;;;4.63;2.60;;;25.00;28.80;;;;;;5002785;28;20045;-44
2022/03/08 08:14:25;;;;;;;3.75;2.35;;;25.00;28.80;;;;;;5002113;28;20037;-44
2022/03/08 08:16:51;;;;;;;6.57;2.58;;;25.00;28.80;;;;;;5004296;28;20034;-44
2022/03/08 08:19:17;;;;;;;3.80;2.50;;;25.00;28.80;;;;;;5004223;28;20309;-44
2022/03/08 08:21:43;;;;;;;3.70;2.70;;;25.00;28.70;;;;;;5004715;28;20493;-43
2022/03/08 08:24:09;;;;;;;3.72;2.35;;;25.10;28.70;;;;;;5004040;28;20097;-44
2022/03/08 08:26:35;;;;;;;4.65;2.25;;;25.10;28.70;;;;;;5004520;28;20549;-44
2022/03/08 08:29:02;;;;;;;5.03;2.50;;;25.10;28.60;;;;;;5003714;28;20052;-44
2022/03/08 08:31:28;;;;;;;4.63;2.60;;;25.10;28.60;;;;;;5002202;28;20044;-44
2022/03/08 08:33:54;;;;;;;5.22;3.13;;;25.10;28.60;;;;;;5006093;28;20030;-44
2022/03/08 08:36:20;;;;;;;6.07;3.00;;;25.20;28.60;;;;;;5004748;28;20044;-44
2022/03/08 08:38:46;;;;;;;8.32;4.78;;;25.20;28.60;;;;;;5003522;28;20029;-43
2022/03/08 08:41:12;;;;;;;14.02;5.55;;;25.20;28.30;;;;;;5001294;28;20026;-44
2022/03/08 08:43:38;;;;;;;11.95;6.35;;;25.20;28.40;;;;;;4995115;28;20045;-44
2022/03/08 08:46:04;;;;;;;12.10;6.30;;;25.20;28.20;;;;;;5000886;28;20529;-43
2022/03/08 08:48:30;;;;;;;17.02;7.38;;;25.20;28.20;;;;;;5002312;28;20076;-43
2022/03/08 08:50:55;;;;;;;15.25;7.55;;;25.20;28.30;;;;;;5001539;28;20052;-44
2022/03/08 08:53:24;;;;;;;15.73;7.53;;;25.20;28.10;;;;;;5003186;28;20136;-44
2022/03/08 08:55:50;;;;;;;16.73;7.63;;;25.20;28.00;;;;;;5003200;28;20033;-44
2022/03/08 08:58:16;;;;;;;14.98;7.80;;;25.20;27.90;;;;;;5003572;28;20030;-44
2022/03/08 09:00:42;;;;;;;16.65;7.15;;;25.20;27.90;;;;;;4999797;28;20045;-44
2022/03/08 09:03:14;;;;;;;16.25;7.97;;;25.20;27.90;;;;;;4984820;28;20109;-44
2022/03/08 09:05:44;;;;;;;;;;;25.20;27.90;;;;;;4985151;28;20037;-44
2022/03/08 09:08:11;;;;;;;12.23;5.82;;;25.20;28.00;;;;;;4985136;28;19914;-44
2022/03/08 09:10:37;;;;;;;13.73;6.55;;;25.20;27.90;;;;;;4999190;28;20037;-43
2022/03/08 09:13:03;;;;;;;14.18;7.43;;;25.20;27.90;;;;;;5004508;28;20033;-44
2022/03/08 09:15:29;;;;;;;11.38;6.47;;;25.30;27.90;;;;;;5004858;28;20394;-43
2022/03/08 09:17:55;;;;;;;13.18;6.38;;;25.30;27.90;;;;;;5008281;28;20104;-44
2022/03/08 09:20:22;;;;;;;14.02;6.45;;;25.30;27.80;;;;;;5008347;28;20152;-44
2022/03/08 09:22:48;;;;;;;12.18;6.82;;;25.30;27.80;;;;;;5009080;28;20586;-44
2022/03/08 09:25:14;;;;;;;13.57;6.97;;;25.30;28.40;;;;;;5008127;28;20034;-43
2022/03/08 09:27:40;;;;;;;10.48;5.95;;;25.30;27.70;;;;;;5008511;28;20377;-44
2022/03/08 09:30:06;;;;;;;11.70;6.35;;;25.30;27.70;;;;;;5008785;28;20291;-43
2022/03/08 09:32:32;;;;;;;12.57;6.05;;;25.30;28.40;;;;;;5008562;28;20029;-43
2022/03/08 09:34:58;;;;;;;11.90;6.43;;;25.30;27.70;;;;;;5008076;28;20033;-43
2022/03/08 09:37:24;;;;;;;10.23;5.70;;;25.30;27.80;;;;;;5008033;28;20036;-43
2022/03/08 09:39:50;;;;;;;10.38;5.85;;;25.40;27.70;;;;;;5023153;28;20030;-44
2022/03/08 09:42:17;;;;;;;10.48;5.70;;;25.40;27.60;;;;;;5006426;28;20084;-44
2022/03/08 09:44:43;;;;;;;10.18;5.57;;;25.40;27.70;;;;;;5007724;28;20123;-44
2022/03/08 09:47:09;;;;;;;9.02;4.82;;;25.40;27.80;;;;;;5007964;28;20196;-44
2022/03/08 09:49:35;;;;;;;9.52;5.40;;;25.40;27.70;;;;;;5008357;28;20078;-44
2022/03/08 09:52:01;;;;;;;9.77;5.15;;;25.40;27.70;;;;;;5023211;28;20054;-44
2022/03/08 09:54:26;;;;;;;8.40;4.38;;;25.40;27.70;;;;;;5007285;28;20061;-44
2022/03/08 09:56:52;;;;;;;10.95;5.20;;;25.40;27.70;;;;;;5007747;28;20038;-44
2022/03/08 09:59:19;;;;;;;7.70;4.35;;;25.40;27.70;;;;;;5007651;28;20410;-43
2022/03/08 10:01:47;;;;;;;8.95;4.35;;;25.40;27.60;;;;;;5007988;28;20026;-44
2022/03/08 10:04:17;;;;;;;8.48;4.10;;;25.40;27.60;;;;;;5007095;28;20409;-44
2022/03/08 10:06:44;;;;;;;8.77;3.92;;;25.40;27.60;;;;;;5007760;28;20497;-44
2022/03/08 10:09:17;;;;;;;7.10;4.45;;;25.40;27.60;;;;;;5007352;28;20030;-44
2022/03/08 10:11:44;;;;;;;6.10;3.55;;;25.40;28.20;;;;;;5007384;28;20033;-44
2022/03/08 10:14:26;;;;;;;7.57;4.10;;;25.40;27.60;;;;;;5006831;28;20109;-44
2022/03/08 10:16:53;;;;;;;9.07;4.38;;;25.40;27.50;;;;;;5022411;28;20560;-43
2022/03/08 10:19:18;;;;;;;7.57;4.18;;;25.40;27.60;;;;;;5007274;28;20026;-44
2022/03/08 10:21:51;;;;;;;6.68;4.18;;;25.40;27.60;;;;;;5007386;28;20555;-44
2022/03/08 10:24:18;;;;;;;;;;;25.40;27.50;;;;;;5006813;28;20049;-44
2022/03/08 10:27:01;;;;;;;5.47;2.95;;;25.40;27.70;;;;;;5006756;28;20004;-44
2022/03/08 10:29:31;;;;;;;7.45;3.50;;;25.40;27.60;;;;;;5007045;28;20069;-44
2022/03/08 10:32:04;;;;;;;6.55;3.05;;;25.40;27.60;;;;;;5007151;28;20030;-44
2022/03/08 10:34:30;;;;;;;6.63;3.28;;;25.40;27.60;;;;;;5006467;28;20113;-44
2022/03/08 10:37:00;;;;;;;6.38;3.28;;;25.40;27.60;;;;;;5007048;28;20332;-44
2022/03/08 10:39:26;;;;;;;6.10;3.63;;;25.40;27.50;;;;;;5021286;28;20507;-44
2022/03/08 10:41:54;;;;;;;5.60;3.03;;;25.40;27.60;;;;;;5006679;28;20030;-44
2022/03/08 10:44:41;;;;;;;6.80;2.90;;;25.40;27.50;;;;;;5006653;28;20029;-44
2022/03/08 10:47:12;;;;;;;5.93;3.00;;;25.40;27.60;;;;;;5006615;28;20022;-44
2022/03/08 10:49:56;;;;;;;5.88;2.97;;;25.40;27.50;;;;;;5006370;28;20026;-44
2022/03/08 10:52:30;;;;;;;5.63;3.05;;;25.40;27.60;;;;;;5006148;28;20382;-44
2022/03/08 10:55:21;;;;;;;6.18;3.08;;;25.40;27.60;;;;;;5006075;28;20022;-44
2022/03/08 10:57:55;;;;;;;4.95;2.20;;;25.40;27.50;;;;;;5005964;28;20034;-44
2022/03/08 11:00:26;;;;;;;5.22;3.20;;;25.40;27.60;;;;;;5006619;28;20477;-44
2022/03/08 11:03:00;;;;;;;6.63;3.00;;;25.40;27.50;;;;;;5005635;28;20037;-44
2022/03/08 11:05:30;;;;;;;5.10;2.35;;;25.40;27.50;;;;;;5006043;28;20041;-48
2022/03/08 11:07:57;;;;;;;4.68;2.58;;;25.40;27.50;;;;;;5006322;28;20088;-44
2022/03/08 11:10:25;;;;;;;5.30;3.13;;;25.50;27.50;;;;;;5005919;28;20109;-43
2022/03/08 11:12:52;;;;;;;5.25;2.65;;;25.40;27.50;;;;;;5006209;28;20440;-43
2022/03/08 11:15:20;;;;;;;5.50;2.67;;;25.40;27.50;;;;;;5006088;28;20053;-44
2022/03/08 11:17:48;;;;;;;4.57;2.50;;;25.40;27.50;;;;;;5021599;28;20029;-44
2022/03/08 11:20:17;;;;;;;4.63;2.47;;;25.50;27.50;;;;;;5006316;28;20409;-43
2022/03/08 11:22:44;;;;;;;4.97;2.45;;;25.40;27.50;;;;;;5006671;28;20109;-43
2022/03/08 11:25:12;;;;;;;4.75;2.40;;;25.40;27.40;;;;;;5006072;28;20271;-44
2022/03/08 11:27:40;;;;;;;5.53;2.38;;;25.40;27.50;;;;;;5006322;28;20034;-43
2022/03/08 11:30:10;;;;;;;5.10;2.63;;;25.40;27.50;;;;;;5006432;28;20120;-43
2022/03/08 11:32:41;;;;;;;5.25;1.92;;;25.50;27.50;;;;;;5006086;28;20037;-44
2022/03/08 11:35:47;;;;;;;4.88;2.58;;;25.50;27.50;;;;;;5006114;28;20018;-43
2022/03/08 11:38:14;;;;;;;4.10;2.63;;;25.50;27.50;;;;;;5005308;28;20101;-44
2022/03/08 11:40:47;;;;;;;3.80;2.28;;;25.50;27.40;;;;;;5004297;28;20225;-44
2022/03/08 11:43:13;;;;;;;4.28;2.13;;;25.50;27.40;;;;;;5005491;28;20110;-44
2022/03/08 11:45:39;;;;;;;4.43;2.22;;;25.50;27.40;;;;;;5006030;28;20038;-44
2022/03/08 11:48:07;;;;;;;4.13;2.28;;;25.50;27.40;;;;;;5005278;28;20026;-43
2022/03/08 11:50:44;;;;;;;3.88;2.10;;;25.50;27.40;;;;;;5005948;28;20033;-44
2022/03/08 11:53:19;;;;;;;4.85;2.00;;;25.50;27.40;;;;;;5006235;28;20045;-44
2022/03/08 11:55:44;;;;;;;4.22;2.40;;;25.50;27.40;;;;;;5005477;28;20099;-44
2022/03/08 11:58:19;;;;;;;3.72;2.33;;;25.50;27.50;;;;;;5005670;28;20029;-43
2022/03/08 12:00:51;;;;;;;5.65;2.50;;;25.50;27.40;;;;;;5005324;28;20476;-44
2022/03/08 12:03:22;;;;;;;3.55;2.00;;;25.50;27.40;;;;;;5005323;28;20049;-44
2022/03/08 12:05:57;;;;;;;3.50;1.90;;;25.50;27.50;;;;;;5005547;28;20513;-44
2022/03/08 12:08:29;;;;;;;3.78;2.13;;;25.50;27.50;;;;;;5005445;28;20030;-44
2022/03/08 12:11:00;;;;;;;3.83;2.00;;;25.50;27.40;;;;;;5005434;28;20026;-44
2022/03/08 12:13:27;;;;;;;4.00;2.17;;;25.50;27.40;;;;;;5005306;28;20088;-43
2022/03/08 12:16:08;;;;;;;3.58;1.77;;;25.50;27.40;;;;;;5005484;28;20040;-44
2022/03/08 12:18:55;;;;;;;3.67;1.90;;;25.60;27.40;;;;;;5005447;28;20086;-44
2022/03/08 12:21:21;;;;;;;3.17;1.77;;;25.60;27.40;;;;;;5005375;28;20030;-45
2022/03/08 12:24:00;;;;;;;4.55;2.08;;;25.60;27.50;;;;;;5005206;28;20060;-44
2022/03/08 12:26:33;;;;;;;4.25;1.95;;;25.60;27.40;;;;;;5004417;28;20034;-44
2022/03/08 12:29:22;;;;;;;3.63;1.95;;;25.60;27.60;;;;;;5005621;28;20528;-44
2022/03/08 12:31:57;;;;;;;4.30;2.10;;;25.60;27.60;;;;;;5005125;28;20117;-44
2022/03/08 12:34:39;;;;;;;4.00;2.10;;;25.60;27.60;;;;;;5005030;28;20022;-44
2022/03/08 12:37:09;;;;;;;3.20;1.92;;;25.70;27.60;;;;;;5020284;28;20470;-44
2022/03/08 12:40:03;;;;;;;3.17;1.80;;;25.70;27.50;;;;;;5004631;28;20034;-43
2022/03/08 12:42:37;;;;;;;3.40;1.50;;;25.70;27.60;;;;;;5004898;28;20034;-44
2022/03/08 12:45:15;;;;;;;3.95;2.25;;;25.70;27.50;;;;;;5004822;28;20428;-44
2022/03/08 12:47:43;;;;;;;3.70;1.80;;;25.70;27.40;;;;;;5004550;28;20025;-44